Terminal Aerodrome Forecast
Issued by NWS Central Illinois

Home | Current Version | Previous Version | Text Only | Print | Product List | Glossary On
Versions: 1 2 3 4 5 6 7 8 9 10 11 12 13 14 15 16 17 18 19 20 21 22 23 24 25 26 27 28 29 30 31 32 33 34 35 36 37 38 39 40 41 42 43 44 45 46 47 48 49 50
000
FTUS43 KILX 190626 AAB
TAFSPI
TAF AMD
KSPI 190626Z 1906/2006 07016KT 4SM -SN BR OVC005
     FM190800 07014G24KT 2SM -SN BR OVC005
     FM191000 06015G25KT 1 1/2SM -SN OVC006
     FM191700 03023G35KT 2SM -SN BLSN OVC008
     FM192100 01020G32KT P6SM OVC010
     FM200200 35014G23KT P6SM BKN035=

USA.gov is the U.S. government's official web portal to all federal, state and local government web resources and services.